createdAt,value
2019-05-14T00:01:22.180Z,44.90
2019-05-14T00:03:51.586Z,44.30
2019-05-14T00:06:21.886Z,44.60
2019-05-14T00:08:52.172Z,44.80
2019-05-14T00:11:21.939Z,44.50
2019-05-14T00:13:52.052Z,44.00
2019-05-14T00:16:23.852Z,45.10
2019-05-14T00:18:51.355Z,45.40
2019-05-14T00:21:21.166Z,45.80
2019-05-14T00:23:51.411Z,46.60
2019-05-14T00:26:21.446Z,46.50
2019-05-14T00:28:51.257Z,47.00
2019-05-14T00:31:21.322Z,48.00
2019-05-14T00:33:51.320Z,47.60
2019-05-14T00:36:21.511Z,47.70
2019-05-14T00:38:51.229Z,47.40
2019-05-14T00:41:21.537Z,47.30
2019-05-14T00:43:51.384Z,48.20
2019-05-14T00:46:21.198Z,48.50
2019-05-14T00:48:51.502Z,48.10
2019-05-14T00:51:21.502Z,48.20
2019-05-14T00:53:51.543Z,48.10
2019-05-14T00:56:21.607Z,48.60
2019-05-14T00:58:52.104Z,49.70
2019-05-14T01:01:21.576Z,50.80
2019-05-14T01:03:52.164Z,50.30
2019-05-14T01:06:21.914Z,49.70
2019-05-14T01:08:51.859Z,49.80
2019-05-14T01:11:22.098Z,50.20
2019-05-14T01:13:52.175Z,50.30
2019-05-14T01:16:22.405Z,49.30
2019-05-14T01:18:51.412Z,49.60
2019-05-14T01:21:21.955Z,48.80
2019-05-14T01:23:51.330Z,49.20
2019-05-14T01:26:21.792Z,49.20
2019-05-14T01:28:51.409Z,49.70
2019-05-14T01:31:21.917Z,49.50
2019-05-14T01:33:51.573Z,49.50
2019-05-14T01:36:21.484Z,49.20
2019-05-14T01:38:51.326Z,49.90
2019-05-14T01:41:22.177Z,49.60
2019-05-14T01:43:51.307Z,49.20
2019-05-14T01:46:20.999Z,49.60
2019-05-14T01:48:51.963Z,49.60
2019-05-14T01:51:22.166Z,50.30
2019-05-14T01:53:52.119Z,50.70
2019-05-14T01:56:21.420Z,52.70
2019-05-14T01:58:52.175Z,53.80
2019-05-14T02:01:21.822Z,52.80
2019-05-14T02:04:11.599Z,52.70
2019-05-14T02:06:41.287Z,53.00
2019-05-14T02:09:11.187Z,53.70
2019-05-14T02:11:41.609Z,53.50
2019-05-14T02:14:11.698Z,53.70
2019-05-14T02:16:42.286Z,53.70
2019-05-14T02:19:11.551Z,54.60
2019-05-14T02:21:42.298Z,55.70
2019-05-14T02:24:11.322Z,55.70
2019-05-14T02:26:42.355Z,55.10
2019-05-14T02:29:12.541Z,55.90
2019-05-14T02:31:40.803Z,55.00
2019-05-14T02:34:10.370Z,54.80
2019-05-14T02:36:39.989Z,53.90
2019-05-14T02:39:10.280Z,53.20
2019-05-14T02:41:39.494Z,53.10
2019-05-14T02:44:09.930Z,54.00
2019-05-14T02:46:40.517Z,54.30
2019-05-14T02:49:10.495Z,53.90
2019-05-14T02:51:39.450Z,53.90
2019-05-14T02:54:09.971Z,53.80
2019-05-14T02:56:40.255Z,53.30
2019-05-14T02:59:09.682Z,53.70
2019-05-14T03:01:40.537Z,54.00
2019-05-14T03:04:09.354Z,54.30
2019-05-14T03:06:39.527Z,54.30
2019-05-14T03:09:09.770Z,54.10
2019-05-14T03:11:40.336Z,55.40
2019-05-14T03:14:09.330Z,56.10
2019-05-14T03:16:40.300Z,56.50
2019-05-14T03:19:09.996Z,56.50
2019-05-14T03:21:39.750Z,55.70
2019-05-14T03:24:09.621Z,56.50
2019-05-14T03:26:39.797Z,56.10
2019-05-14T03:29:09.919Z,56.30
2019-05-14T03:31:42.561Z,56.30
2019-05-14T03:34:13.591Z,56.20
2019-05-14T03:36:42.967Z,56.00
2019-05-14T03:39:10.873Z,56.30
2019-05-14T03:41:40.128Z,56.80
2019-05-14T03:44:09.841Z,57.20
2019-05-14T03:46:48.879Z,56.30
2019-05-14T03:49:09.566Z,56.40
2019-05-14T03:51:39.394Z,56.00
2019-05-14T03:54:12.482Z,55.30
2019-05-14T03:56:39.421Z,55.00
2019-05-14T03:59:09.658Z,55.60
2019-05-14T04:01:51.445Z,55.70
2019-05-14T04:04:20.597Z,54.40
2019-05-14T04:06:50.205Z,57.20
2019-05-14T04:09:20.538Z,56.40
2019-05-14T04:11:52.238Z,54.90
2019-05-14T04:14:23.282Z,55.80
2019-05-14T04:17:15.796Z,56.00
2019-05-14T04:19:43.906Z,56.20
2019-05-14T04:22:14.075Z,56.70
2019-05-14T04:24:43.710Z,56.30
2019-05-14T04:27:15.794Z,55.60
2019-05-14T04:29:45.970Z,54.90
2019-05-14T04:32:14.879Z,55.10
2019-05-14T04:34:43.681Z,55.60
2019-05-14T04:37:12.819Z,56.40
2019-05-14T04:39:41.469Z,56.00
2019-05-14T04:42:10.179Z,56.30
2019-05-14T04:44:40.390Z,56.50
2019-05-14T04:47:25.239Z,57.40
2019-05-14T04:49:41.347Z,56.50
2019-05-14T04:52:10.364Z,55.70
2019-05-14T04:54:39.680Z,54.90
2019-05-14T04:57:10.369Z,55.40
2019-05-14T04:59:39.991Z,56.00
2019-05-14T05:02:09.757Z,56.00
2019-05-14T05:04:41.123Z,56.30
2019-05-14T05:07:09.886Z,57.10
2019-05-14T05:09:39.687Z,56.50
2019-05-14T05:12:09.265Z,56.40
2019-05-14T05:14:39.098Z,57.40
2019-05-14T05:17:09.264Z,56.70
2019-05-14T05:19:45.621Z,56.60
2019-05-14T05:22:13.472Z,55.40
2019-05-14T05:24:41.954Z,56.70
2019-05-14T05:27:10.561Z,56.90
2019-05-14T05:29:39.424Z,56.50
2019-05-14T05:32:08.755Z,55.80
2019-05-14T05:34:38.903Z,56.20
2019-05-14T05:37:08.654Z,56.00
2019-05-14T05:39:38.641Z,55.70
2019-05-14T05:42:09.259Z,56.30
2019-05-14T05:44:39.318Z,56.10
2019-05-14T05:47:09.186Z,56.00
2019-05-14T05:49:38.390Z,56.70
2019-05-14T05:52:28.225Z,56.30
2019-05-14T05:54:58.445Z,55.60
2019-05-14T05:57:28.400Z,56.40
2019-05-14T05:59:58.891Z,55.80
2019-05-14T06:02:29.094Z,56.20
2019-05-14T06:04:58.623Z,56.60
2019-05-14T06:07:28.843Z,56.40
2019-05-14T06:09:58.870Z,55.60
2019-05-14T06:12:29.630Z,57.60
2019-05-14T06:14:58.151Z,56.40
2019-05-14T06:17:28.518Z,56.90
2019-05-14T06:19:59.134Z,56.60
2019-05-14T06:22:28.090Z,57.20
2019-05-14T06:24:58.724Z,57.20
2019-05-14T06:27:28.803Z,57.50
2019-05-14T06:29:58.305Z,58.20
2019-05-14T06:32:29.099Z,57.30
2019-05-14T06:34:59.399Z,57.30
2019-05-14T06:37:30.141Z,57.20
2019-05-14T06:39:58.639Z,57.60
2019-05-14T06:42:28.526Z,58.30
2019-05-14T06:44:58.598Z,61.10
2019-05-14T06:47:28.932Z,59.30
2019-05-14T06:49:59.259Z,59.30
2019-05-14T06:52:29.157Z,58.70
2019-05-14T06:54:58.334Z,59.40
2019-05-14T06:57:28.575Z,58.40
2019-05-14T06:59:58.883Z,58.20
2019-05-14T07:02:28.507Z,57.90
2019-05-14T07:04:58.968Z,60.70
2019-05-14T07:07:30.030Z,60.00
2019-05-14T07:09:58.339Z,59.20
2019-05-14T07:12:29.283Z,59.00
2019-05-14T07:14:58.570Z,58.80
2019-05-14T07:17:28.808Z,58.00
2019-05-14T07:19:58.218Z,57.40
2019-05-14T07:22:28.186Z,55.90
2019-05-14T07:24:58.698Z,56.30
2019-05-14T07:27:48.861Z,57.40
2019-05-14T07:30:19.360Z,58.90
2019-05-14T07:32:48.405Z,59.30
2019-05-14T07:35:18.342Z,58.80
2019-05-14T07:37:48.849Z,58.70
2019-05-14T07:40:19.211Z,57.40
2019-05-14T07:42:48.774Z,57.50
2019-05-14T07:45:18.457Z,56.70
2019-05-14T07:47:49.169Z,56.20
2019-05-14T07:50:19.603Z,55.40
2019-05-14T07:52:49.754Z,55.10
2019-05-14T07:55:18.656Z,54.10
2019-05-14T07:58:08.422Z,54.80
2019-05-14T08:00:36.972Z,54.30
2019-05-14T08:03:08.108Z,53.50
2019-05-14T08:05:36.038Z,53.50
2019-05-14T08:08:04.707Z,53.20
2019-05-14T08:10:33.327Z,52.80
2019-05-14T08:13:01.978Z,52.50
2019-05-14T08:15:30.710Z,50.30
2019-05-14T08:17:59.387Z,49.20
2019-05-14T08:20:28.632Z,49.00
2019-05-14T08:22:58.254Z,48.10
2019-05-14T08:25:28.330Z,47.50
2019-05-14T08:27:58.704Z,48.90
2019-05-14T08:30:28.297Z,48.70
2019-05-14T08:32:58.301Z,48.30
2019-05-14T08:35:28.936Z,48.50
2019-05-14T08:38:07.455Z,48.40
2019-05-14T08:40:28.701Z,47.70
2019-05-14T08:42:58.350Z,47.40
2019-05-14T08:45:28.377Z,46.90
2019-05-14T08:47:58.636Z,48.10
2019-05-14T08:50:28.092Z,49.30
2019-05-14T08:52:58.298Z,48.30
2019-05-14T08:55:26.987Z,49.60
2019-05-14T08:57:56.025Z,49.60
2019-05-14T09:00:24.653Z,49.50
2019-05-14T09:02:53.286Z,50.10
2019-05-14T09:05:21.991Z,48.60
2019-05-14T09:07:50.630Z,48.40
2019-05-14T09:10:19.487Z,48.00
2019-05-14T09:12:49.129Z,48.60
2019-05-14T09:15:18.574Z,49.30
2019-05-14T09:17:48.547Z,48.80
2019-05-14T09:20:19.135Z,49.10
2019-05-14T09:22:49.026Z,47.70
2019-05-14T09:25:18.952Z,46.20
2019-05-14T09:27:49.370Z,44.60
2019-05-14T09:30:18.679Z,45.70
2019-05-14T09:32:49.255Z,45.30
2019-05-14T09:35:18.834Z,39.20
2019-05-14T09:37:51.019Z,40.40
2019-05-14T09:40:19.775Z,40.20
2019-05-14T09:42:49.943Z,40.00
2019-05-14T09:45:18.982Z,40.40
2019-05-14T09:47:50.552Z,40.80
2019-05-14T09:50:22.710Z,38.70
2019-05-14T09:52:49.360Z,41.40
2019-05-14T09:55:18.341Z,39.10
2019-05-14T09:57:49.142Z,38.00
2019-05-14T10:00:18.771Z,39.00
2019-05-14T10:02:49.301Z,39.90
2019-05-14T10:05:19.493Z,39.90
2019-05-14T10:07:49.418Z,39.90
2019-05-14T10:10:21.212Z,39.00
2019-05-14T10:12:53.937Z,37.80
2019-05-14T10:15:20.377Z,39.70
2019-05-14T10:17:49.958Z,39.60
2019-05-14T10:20:35.638Z,39.00
2019-05-14T10:22:49.484Z,38.60
2019-05-14T10:25:18.667Z,37.90
2019-05-14T10:27:48.553Z,39.30
2019-05-14T10:30:18.204Z,38.00
2019-05-14T10:32:49.300Z,38.40
2019-05-14T10:35:19.182Z,39.40
2019-05-14T10:37:48.202Z,40.30
2019-05-14T10:40:18.441Z,40.10
2019-05-14T10:42:49.252Z,39.00
2019-05-14T10:45:18.630Z,37.40
2019-05-14T10:47:49.428Z,35.00
2019-05-14T10:50:18.347Z,36.20
2019-05-14T10:52:48.901Z,35.00
2019-05-14T10:55:18.542Z,35.40
2019-05-14T10:57:53.344Z,35.60
2019-05-14T11:00:19.343Z,34.70
2019-05-14T11:02:49.211Z,35.70
2019-05-14T11:05:18.835Z,35.50
2019-05-14T11:07:48.166Z,35.80
2019-05-14T11:10:19.520Z,35.60
2019-05-14T11:12:50.157Z,34.90
2019-05-14T11:15:19.106Z,34.00
2019-05-14T11:17:48.694Z,33.70
2019-05-14T11:20:19.176Z,33.30
2019-05-14T11:22:49.041Z,35.00
2019-05-14T11:25:19.643Z,34.20
2019-05-14T11:27:49.357Z,32.80
2019-05-14T11:30:19.283Z,32.90
2019-05-14T11:32:49.283Z,33.20
2019-05-14T11:35:19.160Z,33.00
2019-05-14T11:37:48.085Z,32.80
2019-05-14T11:40:19.005Z,33.40
2019-05-14T11:42:49.457Z,34.60
2019-05-14T11:45:18.256Z,37.40
2019-05-14T11:47:48.775Z,35.80
2019-05-14T11:50:19.296Z,35.80
2019-05-14T11:52:48.488Z,34.90
2019-05-14T11:55:18.682Z,34.40
2019-05-14T11:57:48.567Z,33.50
2019-05-14T12:00:19.947Z,34.80
2019-05-14T12:02:48.669Z,33.50
2019-05-14T12:05:18.909Z,34.70
2019-05-14T12:07:48.326Z,36.00
2019-05-14T12:10:18.838Z,34.00
2019-05-14T12:12:48.953Z,33.10
2019-05-14T12:15:18.741Z,33.60
2019-05-14T12:17:51.125Z,33.20
2019-05-14T12:20:18.688Z,32.60
2019-05-14T12:22:48.743Z,30.60
2019-05-14T12:25:18.784Z,30.30
2019-05-14T12:27:49.566Z,32.90
2019-05-14T12:30:19.744Z,30.70
2019-05-14T12:32:50.074Z,29.20
2019-05-14T12:35:19.734Z,28.40
2019-05-14T12:37:48.714Z,28.50
2019-05-14T12:40:19.412Z,28.90
2019-05-14T12:42:49.835Z,28.30
2019-05-14T12:45:19.173Z,27.50
2019-05-14T12:47:50.090Z,27.40
2019-05-14T12:50:18.700Z,28.40
2019-05-14T12:52:48.563Z,27.40
2019-05-14T12:55:19.279Z,27.30
2019-05-14T12:57:48.628Z,28.10
2019-05-14T13:00:17.687Z,28.40
2019-05-14T13:02:46.369Z,28.90
2019-05-14T13:05:18.140Z,29.90
2019-05-14T13:07:45.808Z,30.80
2019-05-14T13:10:14.743Z,30.10
2019-05-14T13:12:43.350Z,29.90
2019-05-14T13:15:12.382Z,29.20
2019-05-14T13:17:41.308Z,29.40
2019-05-14T13:20:13.573Z,30.10
2019-05-14T13:22:45.945Z,29.90
2019-05-14T13:25:11.591Z,29.40
2019-05-14T13:27:40.310Z,29.70
2019-05-14T13:30:11.547Z,30.00
2019-05-14T13:32:40.186Z,30.00
2019-05-14T13:35:13.526Z,32.00
2019-05-14T13:37:40.709Z,30.80
2019-05-14T13:40:10.033Z,32.80
2019-05-14T13:42:43.871Z,29.80
2019-05-14T13:45:10.782Z,30.00
2019-05-14T13:47:39.439Z,29.60
2019-05-14T13:50:08.898Z,29.30
2019-05-14T13:52:40.416Z,29.20
2019-05-14T15:55:14.232Z,19.90
2019-05-14T15:57:42.873Z,19.60
2019-05-14T16:00:12.121Z,19.50
2019-05-14T16:02:40.840Z,19.30
2019-05-14T16:05:10.483Z,20.10
2019-05-14T16:07:39.558Z,19.30
2019-05-14T16:10:08.891Z,20.10
2019-05-14T16:12:39.762Z,19.70
2019-05-14T16:15:08.776Z,19.90
2019-05-14T16:17:48.292Z,20.00
2019-05-14T16:20:09.240Z,19.60
2019-05-14T16:22:39.853Z,20.20
2019-05-14T16:25:09.131Z,21.60
2019-05-14T16:27:39.531Z,20.60
2019-05-14T16:30:10.177Z,22.60
2019-05-14T16:32:39.741Z,22.40
2019-05-14T16:35:09.092Z,21.60
2019-05-14T16:37:39.297Z,21.00
2019-05-14T16:40:08.337Z,20.60
2019-05-14T16:42:39.467Z,19.90
2019-05-14T16:45:08.706Z,19.80
2019-05-14T16:47:39.964Z,19.70
2019-05-14T16:50:09.667Z,20.20
2019-05-14T16:52:42.403Z,20.20
2019-05-14T16:55:22.542Z,20.70
2019-05-14T16:57:39.299Z,20.90
2019-05-14T17:00:09.690Z,21.40
2019-05-14T17:02:38.649Z,20.50
2019-05-14T17:05:09.119Z,20.80
2019-05-14T17:07:38.707Z,21.10
2019-05-14T17:10:08.641Z,20.90
2019-05-14T17:12:49.577Z,21.40
2019-05-14T17:15:09.505Z,21.60
2019-05-14T17:17:38.480Z,21.70
2019-05-14T17:20:08.787Z,21.90
2019-05-14T17:22:39.714Z,21.60
2019-05-14T17:25:09.433Z,21.50
2019-05-14T17:27:39.588Z,21.60
2019-05-14T17:30:09.792Z,21.50
2019-05-14T17:32:39.462Z,22.10
2019-05-14T17:35:10.557Z,22.50
2019-05-14T17:37:39.669Z,23.20
2019-05-14T17:40:09.528Z,24.20
2019-05-14T17:42:39.421Z,24.10
2019-05-14T17:45:09.345Z,24.80
2019-05-14T17:47:38.710Z,25.90
2019-05-14T17:50:08.650Z,25.70
2019-05-14T17:52:43.812Z,24.70
2019-05-14T17:55:12.107Z,24.20
2019-05-14T17:57:45.743Z,24.00
2019-05-14T18:00:10.004Z,24.10
2019-05-14T18:02:38.648Z,24.60
2019-05-14T18:05:09.478Z,26.10
2019-05-14T18:07:37.908Z,26.20
2019-05-14T18:10:09.622Z,27.50
2019-05-14T18:12:39.924Z,28.90
2019-05-14T18:15:09.553Z,29.50
2019-05-14T18:17:39.294Z,30.00
2019-05-14T18:20:08.765Z,31.00
2019-05-14T18:22:42.033Z,31.30
2019-05-14T18:25:08.460Z,31.60
2019-05-14T18:27:39.132Z,32.40
2019-05-14T18:30:09.389Z,32.60
2019-05-14T18:32:38.302Z,32.90
2019-05-14T18:35:09.655Z,32.70
2019-05-14T18:37:38.864Z,33.00
2019-05-14T18:40:09.170Z,33.90
2019-05-14T18:42:39.131Z,34.00
2019-05-14T18:45:08.851Z,34.40
2019-05-14T18:47:39.824Z,33.80
2019-05-14T18:50:09.004Z,34.00
2019-05-14T18:52:40.048Z,34.50
2019-05-14T18:55:09.198Z,34.30
2019-05-14T18:57:38.428Z,34.10
2019-05-14T19:00:08.773Z,34.40
2019-05-14T19:02:39.170Z,34.50
2019-05-14T19:05:08.704Z,34.50
2019-05-14T19:07:39.416Z,34.30
2019-05-14T19:10:09.309Z,34.10
2019-05-14T19:12:38.921Z,34.10
2019-05-14T19:15:09.071Z,34.80
2019-05-14T19:17:38.651Z,35.30
2019-05-14T19:20:08.527Z,35.30
2019-05-14T19:22:39.582Z,36.00
2019-05-14T19:25:08.272Z,36.20
2019-05-14T19:27:38.098Z,36.10
2019-05-14T19:30:08.398Z,36.10
2019-05-14T19:32:39.400Z,36.80
2019-05-14T19:35:08.677Z,35.90
2019-05-14T19:37:39.198Z,36.30
2019-05-14T19:40:09.402Z,37.20
2019-05-14T19:42:39.253Z,37.70
2019-05-14T19:45:08.590Z,38.00
2019-05-14T19:47:39.782Z,38.20
2019-05-14T19:50:08.938Z,38.10
2019-05-14T19:52:39.031Z,38.40
2019-05-14T19:55:08.173Z,38.30
2019-05-14T19:57:38.361Z,38.30
2019-05-14T20:00:09.121Z,38.10
2019-05-14T20:02:38.058Z,38.10
2019-05-14T20:05:09.660Z,37.50
2019-05-14T20:07:39.002Z,38.10
2019-05-14T20:10:08.760Z,37.80
2019-05-14T20:12:39.304Z,37.10
2019-05-14T20:15:09.430Z,37.80
2019-05-14T20:17:38.795Z,38.10
2019-05-14T20:20:09.150Z,38.10
2019-05-14T20:22:39.356Z,38.20
2019-05-14T20:25:08.748Z,38.10
2019-05-14T20:27:39.060Z,38.10
2019-05-14T20:30:09.866Z,38.00
2019-05-14T20:32:38.688Z,38.30
2019-05-14T20:35:09.030Z,38.60
2019-05-14T20:37:38.774Z,38.90
2019-05-14T20:40:08.422Z,38.90
2019-05-14T20:42:39.136Z,39.10
2019-05-14T20:45:08.505Z,38.50
2019-05-14T20:47:39.034Z,38.10
2019-05-14T20:50:08.981Z,38.50
2019-05-14T20:52:37.825Z,38.70
2019-05-14T20:55:09.592Z,38.80
2019-05-14T20:57:38.531Z,39.20
2019-05-14T21:00:11.764Z,37.90
2019-05-14T21:02:40.550Z,37.90
2019-05-14T21:05:13.454Z,38.70
2019-05-14T21:07:40.086Z,39.00
2019-05-14T21:10:09.163Z,38.40
2019-05-14T21:12:39.402Z,39.40
2019-05-14T21:15:09.131Z,39.00
2019-05-14T21:17:38.267Z,39.00
2019-05-14T21:20:09.035Z,39.80
2019-05-14T21:22:40.003Z,40.00
2019-05-14T21:25:11.450Z,39.90
2019-05-14T21:27:48.065Z,40.00
2019-05-14T21:30:10.386Z,40.10
2019-05-14T21:32:42.438Z,40.20
2019-05-14T21:35:09.880Z,40.50
2019-05-14T21:37:39.344Z,40.50
2019-05-14T22:08:48.897Z,43.80
2019-05-14T22:11:18.862Z,43.80
2019-05-14T22:13:49.667Z,44.00
2019-05-14T22:16:18.957Z,43.80
2019-05-14T22:18:48.359Z,43.30
2019-05-14T22:21:18.470Z,43.20
2019-05-14T22:23:48.168Z,43.50
2019-05-14T22:26:18.628Z,44.00
2019-05-14T22:28:47.926Z,44.00
2019-05-14T22:31:19.121Z,43.70
2019-05-14T22:33:47.201Z,43.70
2019-05-14T22:36:20.961Z,43.80
2019-05-14T22:38:48.107Z,43.80
2019-05-14T22:41:18.435Z,43.50
2019-05-14T22:43:48.763Z,43.30
2019-05-14T22:46:18.130Z,43.80
2019-05-14T22:48:48.943Z,43.90
2019-05-14T22:51:18.339Z,43.80
2019-05-14T22:53:49.291Z,44.00
2019-05-14T22:56:17.416Z,44.10
2019-05-14T22:58:48.638Z,44.30
2019-05-14T23:01:18.445Z,44.00
2019-05-14T23:03:48.961Z,44.00
2019-05-14T23:06:18.759Z,44.00
2019-05-14T23:08:48.677Z,43.80
2019-05-14T23:11:19.746Z,44.00
2019-05-14T23:13:48.777Z,43.60
2019-05-14T23:16:31.012Z,44.10
2019-05-14T23:18:48.805Z,44.10
2019-05-14T23:21:17.539Z,44.40
2019-05-14T23:23:46.178Z,44.80
2019-05-14T23:26:14.817Z,45.20
2019-05-14T23:28:45.985Z,45.30
2019-05-14T23:31:13.733Z,45.20
2019-05-14T23:33:42.275Z,45.10
2019-05-14T23:36:11.087Z,45.40
2019-05-14T23:38:40.016Z,45.50
2019-05-14T23:41:08.930Z,45.60
2019-05-14T23:43:39.050Z,46.30
2019-05-14T23:46:09.401Z,47.10
2019-05-14T23:48:39.268Z,47.10
2019-05-14T23:51:08.409Z,47.40
2019-05-14T23:53:39.242Z,47.60
2019-05-14T23:56:08.567Z,47.80
2019-05-14T23:58:37.652Z,47.70
